sensor_id;sensor_type;location;lat;lon;timestamp;temperature;humidity
23289;DHT22;11813;50.834;4.280;2024-02-23T00:01:36;6.40;99.90
23289;DHT22;11813;50.834;4.280;2024-02-23T00:04:01;6.50;99.90
23289;DHT22;11813;50.834;4.280;2024-02-23T00:06:28;6.40;99.90
23289;DHT22;11813;50.834;4.280;2024-02-23T00:08:54;6.50;99.90
23289;DHT22;11813;50.834;4.280;2024-02-23T00:11:20;6.40;99.90
23289;DHT22;11813;50.834;4.280;2024-02-23T00:13:46;6.30;99.90
23289;DHT22;11813;50.834;4.280;2024-02-23T00:16:12;6.30;99.90
23289;DHT22;11813;50.834;4.280;2024-02-23T00:18:38;6.20;99.90
23289;DHT22;11813;50.834;4.280;2024-02-23T00:21:04;6.20;99.90
23289;DHT22;11813;50.834;4.280;2024-02-23T00:23:29;6.20;99.90
23289;DHT22;11813;50.834;4.280;2024-02-23T00:25:55;6.20;99.90
23289;DHT22;11813;50.834;4.280;2024-02-23T00:28:21;6.10;99.90
23289;DHT22;11813;50.834;4.280;2024-02-23T00:30:47;6.10;99.90
23289;DHT22;11813;50.834;4.280;2024-02-23T00:33:12;6.10;99.90
23289;DHT22;11813;50.834;4.280;2024-02-23T00:35:38;6.10;99.90
23289;DHT22;11813;50.834;4.280;2024-02-23T00:38:04;6.10;99.90
23289;DHT22;11813;50.834;4.280;2024-02-23T00:40:29;6.10;99.90
23289;DHT22;11813;50.834;4.280;2024-02-23T00:42:55;6.00;99.90
23289;DHT22;11813;50.834;4.280;2024-02-23T00:45:20;5.90;99.90
23289;DHT22;11813;50.834;4.280;2024-02-23T00:47:47;5.80;99.90
23289;DHT22;11813;50.834;4.280;2024-02-23T00:50:13;5.80;99.90
23289;DHT22;11813;50.834;4.280;2024-02-23T00:52:39;5.80;99.90
23289;DHT22;11813;50.834;4.280;2024-02-23T00:55:05;5.90;99.90
23289;DHT22;11813;50.834;4.280;2024-02-23T00:57:31;5.90;99.90
23289;DHT22;11813;50.834;4.280;2024-02-23T00:59:57;5.80;99.90
23289;DHT22;11813;50.834;4.280;2024-02-23T01:02:22;5.80;99.90
23289;DHT22;11813;50.834;4.280;2024-02-23T01:04:48;5.90;99.90
23289;DHT22;11813;50.834;4.280;2024-02-23T01:07:14;5.70;99.90
23289;DHT22;11813;50.834;4.280;2024-02-23T01:09:39;5.80;99.90
23289;DHT22;11813;50.834;4.280;2024-02-23T01:12:05;5.80;99.90
23289;DHT22;11813;50.834;4.280;2024-02-23T01:14:31;5.80;99.90
23289;DHT22;11813;50.834;4.280;2024-02-23T01:16:56;5.70;99.90
23289;DHT22;11813;50.834;4.280;2024-02-23T01:19:22;5.70;99.90
23289;DHT22;11813;50.834;4.280;2024-02-23T01:21:49;5.80;99.90
23289;DHT22;11813;50.834;4.280;2024-02-23T01:24:17;5.70;99.90
23289;DHT22;11813;50.834;4.280;2024-02-23T01:26:42;5.80;99.90
23289;DHT22;11813;50.834;4.280;2024-02-23T01:29:08;5.80;99.90
23289;DHT22;11813;50.834;4.280;2024-02-23T01:31:34;5.90;99.90
23289;DHT22;11813;50.834;4.280;2024-02-23T01:33:59;5.80;99.90
23289;DHT22;11813;50.834;4.280;2024-02-23T01:36:25;5.80;99.90
23289;DHT22;11813;50.834;4.280;2024-02-23T01:38:50;5.80;99.90
23289;DHT22;11813;50.834;4.280;2024-02-23T01:41:16;5.90;99.90
23289;DHT22;11813;50.834;4.280;2024-02-23T01:43:41;5.90;99.90
23289;DHT22;11813;50.834;4.280;2024-02-23T01:46:07;5.90;99.90
23289;DHT22;11813;50.834;4.280;2024-02-23T01:48:33;5.90;99.90
23289;DHT22;11813;50.834;4.280;2024-02-23T01:51:00;5.90;99.90
23289;DHT22;11813;50.834;4.280;2024-02-23T01:53:26;5.90;99.90
23289;DHT22;11813;50.834;4.280;2024-02-23T01:55:53;5.90;99.90
23289;DHT22;11813;50.834;4.280;2024-02-23T01:58:19;6.00;99.90
23289;DHT22;11813;50.834;4.280;2024-02-23T02:00:45;6.10;99.90
23289;DHT22;11813;50.834;4.280;2024-02-23T02:03:10;6.10;99.90
23289;DHT22;11813;50.834;4.280;2024-02-23T02:05:37;6.10;99.90
23289;DHT22;11813;50.834;4.280;2024-02-23T02:08:03;6.00;99.90
23289;DHT22;11813;50.834;4.280;2024-02-23T02:10:29;6.10;99.90
23289;DHT22;11813;50.834;4.280;2024-02-23T02:12:55;6.00;99.90
23289;DHT22;11813;50.834;4.280;2024-02-23T02:15:20;6.00;99.90
23289;DHT22;11813;50.834;4.280;2024-02-23T02:17:48;6.00;99.90
23289;DHT22;11813;50.834;4.280;2024-02-23T02:20:13;6.00;99.90
23289;DHT22;11813;50.834;4.280;2024-02-23T02:22:39;6.10;99.90
23289;DHT22;11813;50.834;4.280;2024-02-23T02:25:06;6.10;99.90
23289;DHT22;11813;50.834;4.280;2024-02-23T02:27:32;6.00;99.90
23289;DHT22;11813;50.834;4.280;2024-02-23T02:29:58;6.10;99.90
23289;DHT22;11813;50.834;4.280;2024-02-23T02:32:23;6.10;99.90
23289;DHT22;11813;50.834;4.280;2024-02-23T02:34:49;6.10;99.90
23289;DHT22;11813;50.834;4.280;2024-02-23T02:37:15;6.00;99.90
23289;DHT22;11813;50.834;4.280;2024-02-23T02:39:41;6.20;99.90
23289;DHT22;11813;50.834;4.280;2024-02-23T02:42:07;6.10;99.90
23289;DHT22;11813;50.834;4.280;2024-02-23T02:44:32;6.10;99.90
23289;DHT22;11813;50.834;4.280;2024-02-23T02:46:58;6.10;99.90
23289;DHT22;11813;50.834;4.280;2024-02-23T02:49:23;6.10;99.90
23289;DHT22;11813;50.834;4.280;2024-02-23T02:51:49;6.10;99.90
23289;DHT22;11813;50.834;4.280;2024-02-23T02:54:15;6.20;99.90
23289;DHT22;11813;50.834;4.280;2024-02-23T02:56:44;6.20;99.90
23289;DHT22;11813;50.834;4.280;2024-02-23T02:59:11;6.30;99.90
23289;DHT22;11813;50.834;4.280;2024-02-23T03:01:37;6.30;99.90
23289;DHT22;11813;50.834;4.280;2024-02-23T03:04:03;6.30;99.90
23289;DHT22;11813;50.834;4.280;2024-02-23T03:06:29;6.20;99.90
23289;DHT22;11813;50.834;4.280;2024-02-23T03:08:54;6.30;99.90
23289;DHT22;11813;50.834;4.280;2024-02-23T03:11:20;6.40;99.90
23289;DHT22;11813;50.834;4.280;2024-02-23T03:13:45;6.40;99.90
23289;DHT22;11813;50.834;4.280;2024-02-23T03:16:15;6.40;99.90
23289;DHT22;11813;50.834;4.280;2024-02-23T03:18:41;6.50;99.90
23289;DHT22;11813;50.834;4.280;2024-02-23T03:21:07;6.40;99.90
23289;DHT22;11813;50.834;4.280;2024-02-23T03:23:35;6.40;99.90
23289;DHT22;11813;50.834;4.280;2024-02-23T03:26:00;6.40;99.90
23289;DHT22;11813;50.834;4.280;2024-02-23T03:28:26;6.40;99.90
23289;DHT22;11813;50.834;4.280;2024-02-23T03:30:52;6.40;99.90
23289;DHT22;11813;50.834;4.280;2024-02-23T03:33:18;6.40;99.90
23289;DHT22;11813;50.834;4.280;2024-02-23T03:35:43;6.40;99.90
23289;DHT22;11813;50.834;4.280;2024-02-23T03:38:09;6.40;99.90
23289;DHT22;11813;50.834;4.280;2024-02-23T03:40:34;6.30;99.90
23289;DHT22;11813;50.834;4.280;2024-02-23T03:43:01;6.40;99.90
23289;DHT22;11813;50.834;4.280;2024-02-23T03:45:27;6.30;99.90
23289;DHT22;11813;50.834;4.280;2024-02-23T03:47:53;6.40;99.90
23289;DHT22;11813;50.834;4.280;2024-02-23T03:50:19;6.40;99.90
23289;DHT22;11813;50.834;4.280;2024-02-23T03:52:45;6.40;99.90
23289;DHT22;11813;50.834;4.280;2024-02-23T03:55:10;6.50;99.90
23289;DHT22;11813;50.834;4.280;2024-02-23T03:57:36;6.50;99.90
23289;DHT22;11813;50.834;4.280;2024-02-23T04:00:02;6.40;99.90
23289;DHT22;11813;50.834;4.280;2024-02-23T04:02:28;6.40;99.90
23289;DHT22;11813;50.834;4.280;2024-02-23T04:04:54;6.40;99.90
23289;DHT22;11813;50.834;4.280;2024-02-23T04:07:20;6.40;99.90
23289;DHT22;11813;50.834;4.280;2024-02-23T04:09:46;6.50;99.90
23289;DHT22;11813;50.834;4.280;2024-02-23T04:12:18;6.60;99.90
23289;DHT22;11813;50.834;4.280;2024-02-23T04:14:44;6.60;99.90
23289;DHT22;11813;50.834;4.280;2024-02-23T04:17:11;6.50;99.90
23289;DHT22;11813;50.834;4.280;2024-02-23T04:19:40;6.50;99.90
23289;DHT22;11813;50.834;4.280;2024-02-23T04:22:07;6.50;99.90
23289;DHT22;11813;50.834;4.280;2024-02-23T04:24:38;6.50;99.90
23289;DHT22;11813;50.834;4.280;2024-02-23T04:27:05;6.40;99.90
23289;DHT22;11813;50.834;4.280;2024-02-23T04:29:30;6.40;99.90
23289;DHT22;11813;50.834;4.280;2024-02-23T04:31:57;6.40;99.90
23289;DHT22;11813;50.834;4.280;2024-02-23T04:34:23;6.40;99.90
23289;DHT22;11813;50.834;4.280;2024-02-23T04:36:49;6.40;99.90
23289;DHT22;11813;50.834;4.280;2024-02-23T04:39:14;6.40;99.90
23289;DHT22;11813;50.834;4.280;2024-02-23T04:41:40;6.40;99.90
23289;DHT22;11813;50.834;4.280;2024-02-23T04:44:05;6.40;99.90
23289;DHT22;11813;50.834;4.280;2024-02-23T04:46:31;6.40;99.90
23289;DHT22;11813;50.834;4.280;2024-02-23T04:48:57;6.50;99.90
23289;DHT22;11813;50.834;4.280;2024-02-23T04:51:23;6.50;99.90
23289;DHT22;11813;50.834;4.280;2024-02-23T04:53:49;6.50;99.90
23289;DHT22;11813;50.834;4.280;2024-02-23T04:56:15;6.50;99.90
23289;DHT22;11813;50.834;4.280;2024-02-23T04:58:40;6.60;99.90
23289;DHT22;11813;50.834;4.280;2024-02-23T05:01:08;6.60;99.90
23289;DHT22;11813;50.834;4.280;2024-02-23T05:03:34;6.60;99.90
23289;DHT22;11813;50.834;4.280;2024-02-23T05:05:59;6.60;99.90
23289;DHT22;11813;50.834;4.280;2024-02-23T05:08:25;6.60;99.90
23289;DHT22;11813;50.834;4.280;2024-02-23T05:10:53;6.60;99.90
23289;DHT22;11813;50.834;4.280;2024-02-23T05:13:18;6.60;99.90
23289;DHT22;11813;50.834;4.280;2024-02-23T05:15:44;6.60;99.90
23289;DHT22;11813;50.834;4.280;2024-02-23T05:18:10;6.50;99.90
23289;DHT22;11813;50.834;4.280;2024-02-23T05:20:36;6.60;99.90
23289;DHT22;11813;50.834;4.280;2024-02-23T05:23:01;6.60;99.90
23289;DHT22;11813;50.834;4.280;2024-02-23T05:25:27;6.60;99.90
23289;DHT22;11813;50.834;4.280;2024-02-23T05:27:53;6.60;99.90
23289;DHT22;11813;50.834;4.280;2024-02-23T05:30:19;6.60;99.90
23289;DHT22;11813;50.834;4.280;2024-02-23T05:32:44;6.60;99.90
23289;DHT22;11813;50.834;4.280;2024-02-23T05:35:10;6.60;99.90
23289;DHT22;11813;50.834;4.280;2024-02-23T05:37:36;6.60;99.90
23289;DHT22;11813;50.834;4.280;2024-02-23T05:40:03;6.60;99.90
23289;DHT22;11813;50.834;4.280;2024-02-23T05:42:33;6.50;99.90
23289;DHT22;11813;50.834;4.280;2024-02-23T05:44:58;6.50;99.90
23289;DHT22;11813;50.834;4.280;2024-02-23T05:47:24;6.50;99.90
23289;DHT22;11813;50.834;4.280;2024-02-23T05:49:50;6.50;99.90
23289;DHT22;11813;50.834;4.280;2024-02-23T05:52:16;6.50;99.90
23289;DHT22;11813;50.834;4.280;2024-02-23T05:54:41;6.50;99.90
23289;DHT22;11813;50.834;4.280;2024-02-23T05:57:07;6.50;99.90
23289;DHT22;11813;50.834;4.280;2024-02-23T05:59:33;6.50;99.90
23289;DHT22;11813;50.834;4.280;2024-02-23T06:01:59;6.40;99.90
23289;DHT22;11813;50.834;4.280;2024-02-23T06:04:24;6.40;99.90
23289;DHT22;11813;50.834;4.280;2024-02-23T06:06:50;6.40;99.90
23289;DHT22;11813;50.834;4.280;2024-02-23T06:09:16;6.40;99.90
23289;DHT22;11813;50.834;4.280;2024-02-23T06:11:41;6.30;99.90
23289;DHT22;11813;50.834;4.280;2024-02-23T06:14:07;6.40;99.90
23289;DHT22;11813;50.834;4.280;2024-02-23T06:16:33;6.40;99.90
23289;DHT22;11813;50.834;4.280;2024-02-23T06:18:59;6.40;99.90
23289;DHT22;11813;50.834;4.280;2024-02-23T06:21:25;6.50;99.90
23289;DHT22;11813;50.834;4.280;2024-02-23T06:23:51;6.50;99.90
23289;DHT22;11813;50.834;4.280;2024-02-23T06:26:16;6.50;99.90
23289;DHT22;11813;50.834;4.280;2024-02-23T06:28:42;6.50;99.90
23289;DHT22;11813;50.834;4.280;2024-02-23T06:31:09;6.60;99.90
23289;DHT22;11813;50.834;4.280;2024-02-23T06:33:35;6.50;99.90
23289;DHT22;11813;50.834;4.280;2024-02-23T06:36:00;6.50;99.90
23289;DHT22;11813;50.834;4.280;2024-02-23T06:38:27;6.60;99.90
23289;DHT22;11813;50.834;4.280;2024-02-23T06:40:52;6.60;99.90
23289;DHT22;11813;50.834;4.280;2024-02-23T06:43:19;6.60;99.90
23289;DHT22;11813;50.834;4.280;2024-02-23T06:45:44;6.60;99.90
23289;DHT22;11813;50.834;4.280;2024-02-23T06:48:10;6.60;99.90
23289;DHT22;11813;50.834;4.280;2024-02-23T06:50:36;6.60;99.90
23289;DHT22;11813;50.834;4.280;2024-02-23T06:53:01;6.60;99.90
23289;DHT22;11813;50.834;4.280;2024-02-23T06:55:28;6.60;99.90
23289;DHT22;11813;50.834;4.280;2024-02-23T06:57:54;6.60;99.90
23289;DHT22;11813;50.834;4.280;2024-02-23T07:00:23;6.60;99.90
23289;DHT22;11813;50.834;4.280;2024-02-23T07:02:48;6.60;99.90
23289;DHT22;11813;50.834;4.280;2024-02-23T07:05:14;6.60;99.90
23289;DHT22;11813;50.834;4.280;2024-02-23T07:07:40;6.70;99.90
23289;DHT22;11813;50.834;4.280;2024-02-23T07:10:07;6.70;99.90
23289;DHT22;11813;50.834;4.280;2024-02-23T07:12:33;6.70;99.90
23289;DHT22;11813;50.834;4.280;2024-02-23T07:14:58;6.70;99.90
23289;DHT22;11813;50.834;4.280;2024-02-23T07:17:24;6.70;99.90
23289;DHT22;11813;50.834;4.280;2024-02-23T07:19:50;6.80;99.90
23289;DHT22;11813;50.834;4.280;2024-02-23T07:22:17;6.80;99.90
23289;DHT22;11813;50.834;4.280;2024-02-23T07:24:46;6.80;99.90
23289;DHT22;11813;50.834;4.280;2024-02-23T07:27:12;6.80;99.90
23289;DHT22;11813;50.834;4.280;2024-02-23T07:29:38;6.80;99.90
23289;DHT22;11813;50.834;4.280;2024-02-23T07:32:04;6.80;99.90
23289;DHT22;11813;50.834;4.280;2024-02-23T07:34:30;6.90;99.90
23289;DHT22;11813;50.834;4.280;2024-02-23T07:36:56;6.80;99.90
23289;DHT22;11813;50.834;4.280;2024-02-23T07:39:22;6.90;99.90
23289;DHT22;11813;50.834;4.280;2024-02-23T07:41:48;6.90;99.90
23289;DHT22;11813;50.834;4.280;2024-02-23T07:44:13;6.90;99.90
23289;DHT22;11813;50.834;4.280;2024-02-23T07:46:39;7.00;99.90
23289;DHT22;11813;50.834;4.280;2024-02-23T07:49:05;7.00;99.90
23289;DHT22;11813;50.834;4.280;2024-02-23T07:51:35;7.10;99.90
23289;DHT22;11813;50.834;4.280;2024-02-23T07:54:00;7.10;99.90
23289;DHT22;11813;50.834;4.280;2024-02-23T07:56:26;7.00;99.90
23289;DHT22;11813;50.834;4.280;2024-02-23T07:58:51;7.10;99.90
23289;DHT22;11813;50.834;4.280;2024-02-23T08:01:17;7.20;99.90
23289;DHT22;11813;50.834;4.280;2024-02-23T08:03:42;7.00;99.90
23289;DHT22;11813;50.834;4.280;2024-02-23T08:06:08;7.00;99.90
23289;DHT22;11813;50.834;4.280;2024-02-23T08:08:35;6.90;99.90
23289;DHT22;11813;50.834;4.280;2024-02-23T08:11:04;6.80;99.90
23289;DHT22;11813;50.834;4.280;2024-02-23T08:13:30;6.70;99.90
23289;DHT22;11813;50.834;4.280;2024-02-23T08:15:57;6.70;99.90
23289;DHT22;11813;50.834;4.280;2024-02-23T08:18:22;6.70;99.90
23289;DHT22;11813;50.834;4.280;2024-02-23T08:20:48;6.80;99.90
23289;DHT22;11813;50.834;4.280;2024-02-23T08:23:14;6.80;99.90
23289;DHT22;11813;50.834;4.280;2024-02-23T08:25:40;6.80;99.90
23289;DHT22;11813;50.834;4.280;2024-02-23T08:28:05;6.80;99.90
23289;DHT22;11813;50.834;4.280;2024-02-23T08:30:31;6.70;99.90
23289;DHT22;11813;50.834;4.280;2024-02-23T08:32:57;6.60;99.90
23289;DHT22;11813;50.834;4.280;2024-02-23T08:35:22;6.50;99.90
23289;DHT22;11813;50.834;4.280;2024-02-23T08:37:48;6.40;99.90
23289;DHT22;11813;50.834;4.280;2024-02-23T08:40:14;6.40;99.90
23289;DHT22;11813;50.834;4.280;2024-02-23T08:42:39;6.40;99.90
23289;DHT22;11813;50.834;4.280;2024-02-23T08:45:05;6.40;99.90
23289;DHT22;11813;50.834;4.280;2024-02-23T08:47:31;6.30;99.90
23289;DHT22;11813;50.834;4.280;2024-02-23T08:49:59;6.30;99.90
23289;DHT22;11813;50.834;4.280;2024-02-23T08:52:25;6.40;99.90
23289;DHT22;11813;50.834;4.280;2024-02-23T08:54:51;6.30;99.90
23289;DHT22;11813;50.834;4.280;2024-02-23T08:57:17;6.40;99.90
23289;DHT22;11813;50.834;4.280;2024-02-23T08:59:45;6.30;99.90
23289;DHT22;11813;50.834;4.280;2024-02-23T09:02:11;6.40;99.90
23289;DHT22;11813;50.834;4.280;2024-02-23T09:04:36;6.40;99.90
23289;DHT22;11813;50.834;4.280;2024-02-23T09:07:02;6.40;99.90
23289;DHT22;11813;50.834;4.280;2024-02-23T09:09:28;6.50;99.90
23289;DHT22;11813;50.834;4.280;2024-02-23T09:11:53;6.50;99.90
23289;DHT22;11813;50.834;4.280;2024-02-23T09:14:19;6.50;99.90
23289;DHT22;11813;50.834;4.280;2024-02-23T09:16:45;6.50;99.90
23289;DHT22;11813;50.834;4.280;2024-02-23T09:19:12;6.60;99.90
23289;DHT22;11813;50.834;4.280;2024-02-23T09:21:38;6.60;99.90
23289;DHT22;11813;50.834;4.280;2024-02-23T09:24:04;6.60;99.90
23289;DHT22;11813;50.834;4.280;2024-02-23T09:26:30;6.70;99.90
23289;DHT22;11813;50.834;4.280;2024-02-23T09:28:56;6.70;99.90
23289;DHT22;11813;50.834;4.280;2024-02-23T09:31:22;6.70;99.90
23289;DHT22;11813;50.834;4.280;2024-02-23T09:33:47;6.80;99.90
23289;DHT22;11813;50.834;4.280;2024-02-23T09:36:16;6.90;99.90
23289;DHT22;11813;50.834;4.280;2024-02-23T09:38:42;7.10;99.90
23289;DHT22;11813;50.834;4.280;2024-02-23T09:41:15;7.20;99.90
23289;DHT22;11813;50.834;4.280;2024-02-23T09:43:44;7.10;99.90
23289;DHT22;11813;50.834;4.280;2024-02-23T09:46:11;7.20;99.90
23289;DHT22;11813;50.834;4.280;2024-02-23T09:48:38;7.20;99.90
23289;DHT22;11813;50.834;4.280;2024-02-23T09:51:05;7.30;99.90
23289;DHT22;11813;50.834;4.280;2024-02-23T09:53:33;7.30;99.90
23289;DHT22;11813;50.834;4.280;2024-02-23T09:56:00;7.30;99.90
23289;DHT22;11813;50.834;4.280;2024-02-23T09:58:27;7.30;99.90
23289;DHT22;11813;50.834;4.280;2024-02-23T10:00:56;7.20;99.90
23289;DHT22;11813;50.834;4.280;2024-02-23T10:03:27;7.20;99.90
23289;DHT22;11813;50.834;4.280;2024-02-23T10:05:56;7.20;99.90
23289;DHT22;11813;50.834;4.280;2024-02-23T10:08:22;7.40;99.90
23289;DHT22;11813;50.834;4.280;2024-02-23T10:10:48;7.40;99.90
23289;DHT22;11813;50.834;4.280;2024-02-23T10:13:20;7.60;99.90
23289;DHT22;11813;50.834;4.280;2024-02-23T10:15:50;7.60;99.90
23289;DHT22;11813;50.834;4.280;2024-02-23T10:18:16;7.60;99.90
23289;DHT22;11813;50.834;4.280;2024-02-23T10:20:42;7.60;99.90
23289;DHT22;11813;50.834;4.280;2024-02-23T10:23:08;7.70;99.90
23289;DHT22;11813;50.834;4.280;2024-02-23T10:25:34;7.70;99.90
23289;DHT22;11813;50.834;4.280;2024-02-23T10:28:04;7.80;99.90
23289;DHT22;11813;50.834;4.280;2024-02-23T10:30:31;7.90;99.90
23289;DHT22;11813;50.834;4.280;2024-02-23T10:32:57;7.90;99.90
23289;DHT22;11813;50.834;4.280;2024-02-23T10:35:24;7.90;99.90
23289;DHT22;11813;50.834;4.280;2024-02-23T10:37:51;7.90;99.90
23289;DHT22;11813;50.834;4.280;2024-02-23T10:40:18;7.90;99.90
23289;DHT22;11813;50.834;4.280;2024-02-23T10:42:45;7.90;99.90
23289;DHT22;11813;50.834;4.280;2024-02-23T10:45:15;8.00;99.90
23289;DHT22;11813;50.834;4.280;2024-02-23T10:47:41;8.10;99.90
23289;DHT22;11813;50.834;4.280;2024-02-23T10:50:08;8.20;99.90
23289;DHT22;11813;50.834;4.280;2024-02-23T10:52:35;8.30;99.90
23289;DHT22;11813;50.834;4.280;2024-02-23T10:55:01;8.40;99.90
23289;DHT22;11813;50.834;4.280;2024-02-23T10:57:31;8.50;99.90
23289;DHT22;11813;50.834;4.280;2024-02-23T10:59:58;8.50;99.90
23289;DHT22;11813;50.834;4.280;2024-02-23T11:02:24;8.60;99.90
23289;DHT22;11813;50.834;4.280;2024-02-23T11:04:55;8.70;99.90
23289;DHT22;11813;50.834;4.280;2024-02-23T11:07:22;8.70;99.90
23289;DHT22;11813;50.834;4.280;2024-02-23T11:09:54;8.70;99.90
23289;DHT22;11813;50.834;4.280;2024-02-23T11:12:24;8.70;99.90
23289;DHT22;11813;50.834;4.280;2024-02-23T11:14:50;8.60;99.90
23289;DHT22;11813;50.834;4.280;2024-02-23T11:17:20;8.60;99.90
23289;DHT22;11813;50.834;4.280;2024-02-23T11:19:48;8.60;99.90
23289;DHT22;11813;50.834;4.280;2024-02-23T11:22:14;8.50;99.90
23289;DHT22;11813;50.834;4.280;2024-02-23T11:24:44;8.50;99.90
23289;DHT22;11813;50.834;4.280;2024-02-23T11:27:14;8.60;99.90
23289;DHT22;11813;50.834;4.280;2024-02-23T11:29:42;8.60;99.90
23289;DHT22;11813;50.834;4.280;2024-02-23T11:32:18;8.60;99.90
23289;DHT22;11813;50.834;4.280;2024-02-23T11:34:56;8.70;99.90
23289;DHT22;11813;50.834;4.280;2024-02-23T11:37:22;8.70;99.90
23289;DHT22;11813;50.834;4.280;2024-02-23T11:39:48;8.60;99.90
23289;DHT22;11813;50.834;4.280;2024-02-23T11:42:14;8.60;99.90
23289;DHT22;11813;50.834;4.280;2024-02-23T11:44:40;8.60;99.90
23289;DHT22;11813;50.834;4.280;2024-02-23T11:47:07;8.60;99.90
23289;DHT22;11813;50.834;4.280;2024-02-23T11:49:33;8.60;99.90
23289;DHT22;11813;50.834;4.280;2024-02-23T11:51:58;8.60;99.90
23289;DHT22;11813;50.834;4.280;2024-02-23T11:54:25;8.60;99.90
23289;DHT22;11813;50.834;4.280;2024-02-23T11:56:50;8.60;99.90
23289;DHT22;11813;50.834;4.280;2024-02-23T11:59:19;8.70;99.90
23289;DHT22;11813;50.834;4.280;2024-02-23T12:01:46;8.70;99.90
23289;DHT22;11813;50.834;4.280;2024-02-23T12:04:13;8.80;99.90
23289;DHT22;11813;50.834;4.280;2024-02-23T12:06:40;8.90;99.90
23289;DHT22;11813;50.834;4.280;2024-02-23T12:09:05;9.00;99.90
23289;DHT22;11813;50.834;4.280;2024-02-23T12:11:31;9.00;99.90
23289;DHT22;11813;50.834;4.280;2024-02-23T12:13:57;8.80;99.90
23289;DHT22;11813;50.834;4.280;2024-02-23T12:16:23;8.80;99.90
23289;DHT22;11813;50.834;4.280;2024-02-23T12:18:55;8.90;99.90
23289;DHT22;11813;50.834;4.280;2024-02-23T12:21:23;8.90;99.90
23289;DHT22;11813;50.834;4.280;2024-02-23T12:23:49;9.00;99.90
23289;DHT22;11813;50.834;4.280;2024-02-23T12:26:17;8.90;99.90
23289;DHT22;11813;50.834;4.280;2024-02-23T12:28:43;8.90;99.90
23289;DHT22;11813;50.834;4.280;2024-02-23T12:31:10;9.00;99.90
23289;DHT22;11813;50.834;4.280;2024-02-23T12:33:39;8.90;99.90
23289;DHT22;11813;50.834;4.280;2024-02-23T12:36:06;8.90;99.90
23289;DHT22;11813;50.834;4.280;2024-02-23T12:38:33;9.10;99.90
23289;DHT22;11813;50.834;4.280;2024-02-23T12:40:59;9.20;99.90
23289;DHT22;11813;50.834;4.280;2024-02-23T12:43:25;9.40;99.90
23289;DHT22;11813;50.834;4.280;2024-02-23T12:45:52;9.50;99.90
23289;DHT22;11813;50.834;4.280;2024-02-23T12:48:18;9.50;99.90
23289;DHT22;11813;50.834;4.280;2024-02-23T12:50:44;9.50;99.90
23289;DHT22;11813;50.834;4.280;2024-02-23T12:53:33;9.40;99.90
23289;DHT22;11813;50.834;4.280;2024-02-23T12:56:04;9.40;99.90
23289;DHT22;11813;50.834;4.280;2024-02-23T12:58:31;9.40;99.90
23289;DHT22;11813;50.834;4.280;2024-02-23T13:00:57;9.40;99.90
23289;DHT22;11813;50.834;4.280;2024-02-23T13:03:24;9.40;99.90
23289;DHT22;11813;50.834;4.280;2024-02-23T13:05:50;9.20;99.90
23289;DHT22;11813;50.834;4.280;2024-02-23T13:08:16;9.10;99.90
23289;DHT22;11813;50.834;4.280;2024-02-23T13:10:42;9.10;99.90
23289;DHT22;11813;50.834;4.280;2024-02-23T13:13:07;9.20;99.90
23289;DHT22;11813;50.834;4.280;2024-02-23T13:15:33;9.20;99.90
23289;DHT22;11813;50.834;4.280;2024-02-23T13:17:58;9.30;99.90
23289;DHT22;11813;50.834;4.280;2024-02-23T13:20:24;9.30;99.90
23289;DHT22;11813;50.834;4.280;2024-02-23T13:22:52;9.30;99.90
23289;DHT22;11813;50.834;4.280;2024-02-23T13:25:18;9.50;99.90
23289;DHT22;11813;50.834;4.280;2024-02-23T13:27:44;9.50;99.90
23289;DHT22;11813;50.834;4.280;2024-02-23T13:30:10;9.60;99.90
23289;DHT22;11813;50.834;4.280;2024-02-23T13:32:35;9.70;99.90
23289;DHT22;11813;50.834;4.280;2024-02-23T13:35:01;9.70;99.90
23289;DHT22;11813;50.834;4.280;2024-02-23T13:37:29;9.70;99.90
23289;DHT22;11813;50.834;4.280;2024-02-23T13:39:55;9.70;99.90
23289;DHT22;11813;50.834;4.280;2024-02-23T13:42:21;9.60;99.90
23289;DHT22;11813;50.834;4.280;2024-02-23T13:44:46;9.70;99.90
23289;DHT22;11813;50.834;4.280;2024-02-23T13:47:12;9.80;99.90
23289;DHT22;11813;50.834;4.280;2024-02-23T13:49:38;9.90;99.90
23289;DHT22;11813;50.834;4.280;2024-02-23T13:52:03;10.00;99.90
23289;DHT22;11813;50.834;4.280;2024-02-23T13:54:29;10.00;99.90
23289;DHT22;11813;50.834;4.280;2024-02-23T13:56:54;10.10;99.90
23289;DHT22;11813;50.834;4.280;2024-02-23T13:59:20;10.10;99.90
23289;DHT22;11813;50.834;4.280;2024-02-23T14:01:46;10.10;99.90
23289;DHT22;11813;50.834;4.280;2024-02-23T14:04:11;10.20;99.90
23289;DHT22;11813;50.834;4.280;2024-02-23T14:06:37;10.40;99.90
23289;DHT22;11813;50.834;4.280;2024-02-23T14:09:03;10.10;99.90
23289;DHT22;11813;50.834;4.280;2024-02-23T14:11:29;9.90;99.90
23289;DHT22;11813;50.834;4.280;2024-02-23T14:13:56;10.00;99.90
23289;DHT22;11813;50.834;4.280;2024-02-23T14:16:22;10.10;99.90
23289;DHT22;11813;50.834;4.280;2024-02-23T14:18:49;10.20;99.90
23289;DHT22;11813;50.834;4.280;2024-02-23T14:21:15;10.30;99.90
23289;DHT22;11813;50.834;4.280;2024-02-23T14:23:42;10.50;99.90
23289;DHT22;11813;50.834;4.280;2024-02-23T14:26:07;10.60;99.90
23289;DHT22;11813;50.834;4.280;2024-02-23T14:28:33;10.70;99.90
23289;DHT22;11813;50.834;4.280;2024-02-23T14:30:59;11.00;99.90
23289;DHT22;11813;50.834;4.280;2024-02-23T14:33:24;10.90;99.90
23289;DHT22;11813;50.834;4.280;2024-02-23T14:35:50;10.70;99.90
23289;DHT22;11813;50.834;4.280;2024-02-23T14:38:16;10.50;99.90
23289;DHT22;11813;50.834;4.280;2024-02-23T14:40:42;10.40;99.90
23289;DHT22;11813;50.834;4.280;2024-02-23T14:43:08;10.30;99.90
23289;DHT22;11813;50.834;4.280;2024-02-23T14:45:36;10.30;99.90
23289;DHT22;11813;50.834;4.280;2024-02-23T14:48:02;10.30;99.90
23289;DHT22;11813;50.834;4.280;2024-02-23T14:50:27;10.30;99.90
23289;DHT22;11813;50.834;4.280;2024-02-23T14:52:53;10.50;99.90
23289;DHT22;11813;50.834;4.280;2024-02-23T14:55:19;10.70;99.90
23289;DHT22;11813;50.834;4.280;2024-02-23T14:57:45;10.60;99.90
23289;DHT22;11813;50.834;4.280;2024-02-23T15:00:11;10.80;99.90
23289;DHT22;11813;50.834;4.280;2024-02-23T15:02:38;10.80;99.90
23289;DHT22;11813;50.834;4.280;2024-02-23T15:05:04;10.60;99.90
23289;DHT22;11813;50.834;4.280;2024-02-23T15:07:31;10.50;99.90
23289;DHT22;11813;50.834;4.280;2024-02-23T15:09:57;10.50;99.90
23289;DHT22;11813;50.834;4.280;2024-02-23T15:12:22;10.40;99.90
23289;DHT22;11813;50.834;4.280;2024-02-23T15:14:49;10.30;99.90
23289;DHT22;11813;50.834;4.280;2024-02-23T15:17:16;10.10;99.90
23289;DHT22;11813;50.834;4.280;2024-02-23T15:19:41;10.20;99.90
23289;DHT22;11813;50.834;4.280;2024-02-23T15:22:07;10.50;99.90
23289;DHT22;11813;50.834;4.280;2024-02-23T15:24:34;10.60;99.90
23289;DHT22;11813;50.834;4.280;2024-02-23T15:27:00;10.90;99.90
23289;DHT22;11813;50.834;4.280;2024-02-23T15:29:25;11.30;99.90
23289;DHT22;11813;50.834;4.280;2024-02-23T15:31:51;11.40;99.90
23289;DHT22;11813;50.834;4.280;2024-02-23T15:34:17;11.10;99.90
23289;DHT22;11813;50.834;4.280;2024-02-23T15:36:42;11.00;99.90
23289;DHT22;11813;50.834;4.280;2024-02-23T15:39:08;10.90;99.90